createdAt,value
2023-03-16T05:54:48.484Z,100555.62
2023-03-16T05:57:17.657Z,100560.83
2023-03-16T05:59:46.567Z,100563.67
2023-03-16T06:02:15.167Z,100563.45
2023-03-16T06:04:43.808Z,100562.54
2023-03-16T06:07:12.967Z,100572.88
2023-03-16T06:09:41.849Z,100576.73
2023-03-16T06:12:10.638Z,100579.94
2023-03-16T06:14:39.793Z,100574.46
2023-03-16T06:17:08.448Z,100576.16
2023-03-16T06:19:37.169Z,100579.75
2023-03-16T06:22:05.862Z,100578.90
2023-03-16T06:24:34.687Z,100582.01
2023-03-16T06:27:03.474Z,100583.71
2023-03-16T06:29:32.124Z,100582.56
2023-03-16T06:32:00.581Z,100577.87
2023-03-16T06:34:29.656Z,100571.12
2023-03-16T06:36:58.877Z,100573.08
2023-03-16T06:39:28.314Z,100570.80
2023-03-16T06:41:57.215Z,100568.20
2023-03-16T06:44:37.785Z,100570.84
2023-03-16T06:47:07.149Z,100565.05
2023-03-16T06:49:40.735Z,100565.23
2023-03-16T06:53:07.238Z,100557.72
2023-03-16T06:56:47.641Z,100550.90
2023-03-16T07:00:19.412Z,100535.20
2023-03-16T07:03:49.802Z,100530.64
2023-03-16T07:07:29.411Z,100514.02
2023-03-16T07:14:17.662Z,100516.61
2023-03-16T07:33:33.567Z,100515.17
2023-03-16T07:37:03.993Z,100509.36
2023-03-16T07:40:33.859Z,100499.45
2023-03-16T07:44:04.065Z,100495.53
2023-03-16T07:47:35.413Z,100485.25
2023-03-16T07:51:15.219Z,100489.14
2023-03-16T08:10:58.597Z,100511.34
2023-03-16T08:14:12.223Z,100510.38
2023-03-16T08:16:45.077Z,100510.77
2023-03-16T08:19:14.412Z,100520.39
2023-03-16T08:21:59.991Z,100526.20
2023-03-16T09:08:32.887Z,100663.49
2023-03-16T09:11:59.467Z,100672.89
2023-03-16T09:15:29.150Z,100663.73
2023-03-16T09:18:58.616Z,100667.99
2023-03-16T09:22:37.277Z,100684.05
2023-03-16T09:38:05.565Z,100686.55
2023-03-16T09:41:48.081Z,100687.73
2023-03-16T09:45:23.887Z,100684.92
2023-03-16T09:48:54.520Z,100669.89
2023-03-16T09:52:32.498Z,100665.15
2023-03-16T10:33:21.579Z,100726.59
2023-03-16T10:36:56.755Z,100735.94
2023-03-16T10:40:11.119Z,100750.23
2023-03-16T10:43:44.441Z,100749.50
2023-03-16T10:47:32.501Z,100749.13
2023-03-16T10:51:19.431Z,100747.82
2023-03-16T10:54:51.270Z,100754.45
2023-03-16T10:58:21.044Z,100763.58
2023-03-16T11:01:51.747Z,100765.95
2023-03-16T11:05:46.099Z,100761.42
2023-03-16T11:21:21.090Z,100763.84
2023-03-16T11:25:12.243Z,100757.59
2023-03-16T11:28:45.618Z,100753.76
2023-03-16T11:32:34.291Z,100751.09
2023-03-16T11:36:08.449Z,100744.27
2023-03-16T11:59:36.855Z,100708.85
2023-03-16T12:03:18.244Z,100707.59
2023-03-16T12:06:57.570Z,100713.85
2023-03-16T12:14:44.130Z,100730.82
2023-03-16T12:37:14.806Z,100758.29
2023-03-16T12:40:48.055Z,100756.92
2023-03-16T12:44:22.732Z,100758.39
2023-03-16T12:48:02.235Z,100769.27
2023-03-16T12:51:34.083Z,100772.66
2023-03-16T12:55:05.764Z,100771.30
2023-03-16T12:58:39.502Z,100770.19
2023-03-16T13:02:12.080Z,100775.25
2023-03-16T13:05:42.776Z,100779.02
2023-03-16T13:09:16.401Z,100785.66
2023-03-16T13:39:18.285Z,100799.19
2023-03-16T13:43:01.876Z,100794.41
2023-03-16T13:50:37.538Z,100794.67
2023-03-16T14:12:38.048Z,100796.23
2023-03-16T14:16:13.214Z,100794.64
2023-03-16T14:20:04.286Z,100792.67
2023-03-16T14:52:21.082Z,100781.97
2023-03-16T14:59:47.886Z,100787.39
2023-03-16T15:35:44.733Z,100798.88
2023-03-16T15:39:22.145Z,100800.90
2023-03-16T15:42:31.084Z,100808.02
2023-03-16T15:45:54.838Z,100808.39
2023-03-16T15:49:28.421Z,100814.21
2023-03-16T15:53:04.941Z,100811.14
2023-03-16T15:56:52.873Z,100815.25
2023-03-16T16:00:23.545Z,100819.73
2023-03-16T16:22:20.290Z,100829.37
2023-03-16T16:25:49.383Z,100831.73
2023-03-16T16:29:21.256Z,100829.78
2023-03-16T16:32:58.348Z,100831.98
2023-03-16T16:37:06.142Z,100838.79
2023-03-16T16:40:43.249Z,100846.16
2023-03-16T16:44:17.234Z,100842.35
2023-03-16T16:47:32.877Z,100840.28
2023-03-16T17:09:47.663Z,100859.88
2023-03-16T17:13:20.173Z,100863.20
2023-03-16T17:16:48.981Z,100868.36
2023-03-16T17:20:30.409Z,100875.73
2023-03-16T17:24:11.463Z,100882.23
2023-03-16T17:50:43.197Z,100903.44
2023-03-16T18:51:30.770Z,100921.10
2023-03-16T18:54:55.186Z,100917.48
2023-03-16T18:58:25.132Z,100920.99
2023-03-16T19:01:43.206Z,100921.86
2023-03-16T19:04:56.930Z,100923.95
2023-03-16T19:08:21.097Z,100926.55
2023-03-16T19:14:56.304Z,100932.32
2023-03-16T19:17:36.261Z,100932.17
2023-03-16T19:20:16.659Z,100935.34
2023-03-16T19:22:54.039Z,100935.13
2023-03-16T19:25:48.728Z,100935.09
2023-03-16T19:28:41.365Z,100942.39
2023-03-16T19:32:01.173Z,100948.14
2023-03-16T19:34:40.627Z,100953.55
2023-03-16T19:37:29.350Z,100960.30
2023-03-16T19:40:23.437Z,100955.62
2023-03-16T19:43:08.860Z,100956.64
2023-03-16T19:45:46.939Z,100961.54
2023-03-16T19:48:30.574Z,100959.17
2023-03-16T19:51:07.327Z,100965.02
2023-03-16T19:53:40.854Z,100964.33
2023-03-16T19:56:27.040Z,100962.23
2023-03-16T19:59:11.631Z,100954.48
2023-03-16T20:02:02.559Z,100953.54
2023-03-16T20:04:34.674Z,100947.64
2023-03-16T20:07:16.489Z,100949.47
2023-03-16T20:09:47.559Z,100947.41
2023-03-16T20:12:28.477Z,100943.18
2023-03-16T20:15:07.318Z,100942.67
2023-03-16T20:17:41.122Z,100950.42
2023-03-16T20:20:35.534Z,100953.27
2023-03-16T20:23:31.827Z,100947.08
2023-03-16T20:26:19.455Z,100937.04
2023-03-16T20:28:52.165Z,100926.73
2023-03-16T20:31:30.836Z,100919.10
2023-03-16T20:34:05.725Z,100919.68
2023-03-16T20:36:36.194Z,100915.13
2023-03-16T20:39:09.363Z,100914.08
2023-03-16T20:41:40.362Z,100921.97
2023-03-16T20:44:26.395Z,100919.96
2023-03-16T20:46:59.914Z,100910.49
2023-03-16T20:49:33.605Z,100913.31
2023-03-16T20:52:22.965Z,100915.35
2023-03-16T20:54:53.608Z,100916.02
2023-03-16T20:57:27.875Z,100917.59
2023-03-16T20:59:59.416Z,100919.70
2023-03-16T21:02:34.634Z,100920.29
2023-03-16T21:05:08.368Z,100912.17
2023-03-16T21:07:39.897Z,100909.21
2023-03-16T21:10:16.250Z,100912.92
2023-03-16T21:12:50.425Z,100905.95
2023-03-16T21:15:29.567Z,100906.14
2023-03-16T21:18:31.272Z,100906.06
2023-03-16T21:21:09.740Z,100907.68
2023-03-16T21:23:40.665Z,100905.67
2023-03-16T21:26:24.255Z,100904.86
2023-03-16T21:29:08.962Z,100897.64
2023-03-16T21:31:48.862Z,100897.19
2023-03-16T21:34:39.044Z,100900.02
2023-03-16T21:38:00.006Z,100899.96
2023-03-16T21:40:37.364Z,100896.77
2023-03-16T21:43:12.026Z,100893.11
2023-03-16T21:45:52.982Z,100901.44
2023-03-16T21:48:39.349Z,100904.31
2023-03-16T21:51:56.104Z,100897.28
2023-03-16T21:55:27.403Z,100902.14
2023-03-16T21:58:17.875Z,100895.14
2023-03-16T22:00:59.313Z,100900.41
2023-03-16T22:03:51.056Z,100900.59
2023-03-16T22:06:28.371Z,100903.31
2023-03-16T22:09:39.384Z,100906.20
2023-03-16T22:12:19.885Z,100911.54
2023-03-16T22:14:51.971Z,100912.99
2023-03-16T22:17:34.963Z,100912.25
2023-03-16T22:20:04.472Z,100912.84
2023-03-16T22:22:33.868Z,100922.28
2023-03-16T22:25:03.352Z,100927.44
2023-03-16T22:27:32.404Z,100928.23
2023-03-16T22:30:01.690Z,100934.02
2023-03-16T22:32:30.637Z,100936.69
2023-03-16T22:34:59.902Z,100939.33
2023-03-16T22:37:29.718Z,100938.09
2023-03-16T22:39:59.267Z,100942.73
2023-03-16T22:42:37.435Z,100945.38
2023-03-16T22:45:22.648Z,100945.17
2023-03-16T22:47:52.677Z,100942.73
2023-03-16T22:50:22.422Z,100944.74
2023-03-16T22:52:56.163Z,100940.70
2023-03-16T22:55:33.339Z,100939.30
2023-03-16T22:58:08.154Z,100933.40
2023-03-16T23:00:38.496Z,100930.90
2023-03-16T23:03:20.216Z,100927.18
2023-03-16T23:05:49.528Z,100921.58
2023-03-16T23:08:21.997Z,100923.45
2023-03-16T23:10:53.937Z,100919.15
2023-03-16T23:13:26.048Z,100920.89
2023-03-16T23:15:57.154Z,100915.27
2023-03-16T23:18:27.110Z,100914.89
2023-03-16T23:20:56.020Z,100911.23
2023-03-16T23:23:24.645Z,100910.10
2023-03-16T23:25:53.789Z,100913.25
2023-03-16T23:28:25.036Z,100913.14
2023-03-16T23:30:53.734Z,100904.41
2023-03-16T23:33:22.444Z,100906.45
2023-03-16T23:35:50.910Z,100908.66
2023-03-16T23:38:19.539Z,100912.90
2023-03-16T23:40:49.800Z,100918.50
2023-03-16T23:43:18.589Z,100921.40
2023-03-16T23:45:48.574Z,100920.21
2023-03-16T23:48:21.505Z,100917.13
2023-03-16T23:50:53.550Z,100918.98
2023-03-16T23:53:24.183Z,100915.91
2023-03-16T23:55:53.027Z,100910.70
2023-03-16T23:58:21.606Z,100907.18
